sensor_id;sensor_type;location;lat;lon;timestamp;pressure;altitude;pressure_sealevel;temperature;humidity
15308;BME280;7755;52.208;6.964;2023-03-15T00:01:21;100660.63;;;2.72;100.00
15308;BME280;7755;52.208;6.964;2023-03-15T00:05:24;100653.84;;;2.55;100.00
15308;BME280;7755;52.208;6.964;2023-03-15T00:09:29;100659.03;;;2.41;100.00
15308;BME280;7755;52.208;6.964;2023-03-15T00:13:32;100644.44;;;2.29;100.00
15308;BME280;7755;52.208;6.964;2023-03-15T00:17:35;100650.75;;;2.22;100.00
15308;BME280;7755;52.208;6.964;2023-03-15T00:21:38;100665.50;;;2.11;100.00
15308;BME280;7755;52.208;6.964;2023-03-15T00:25:46;100658.91;;;2.13;100.00
15308;BME280;7755;52.208;6.964;2023-03-15T00:29:49;100659.75;;;2.14;100.00
15308;BME280;7755;52.208;6.964;2023-03-15T00:33:52;100677.28;;;2.16;100.00
15308;BME280;7755;52.208;6.964;2023-03-15T00:37:57;100669.00;;;2.11;100.00
15308;BME280;7755;52.208;6.964;2023-03-15T00:42:01;100668.25;;;2.03;100.00
15308;BME280;7755;52.208;6.964;2023-03-15T00:46:05;100674.00;;;2.00;100.00
15308;BME280;7755;52.208;6.964;2023-03-15T00:50:09;100674.81;;;2.00;100.00
15308;BME280;7755;52.208;6.964;2023-03-15T00:54:12;100682.22;;;1.98;100.00
15308;BME280;7755;52.208;6.964;2023-03-15T00:58:17;100681.56;;;1.96;100.00
15308;BME280;7755;52.208;6.964;2023-03-15T01:02:24;100693.69;;;1.92;100.00
15308;BME280;7755;52.208;6.964;2023-03-15T01:06:28;100697.38;;;1.91;100.00
15308;BME280;7755;52.208;6.964;2023-03-15T01:10:33;100694.88;;;1.89;100.00
15308;BME280;7755;52.208;6.964;2023-03-15T01:14:38;100703.38;;;1.93;100.00
15308;BME280;7755;52.208;6.964;2023-03-15T01:18:41;100707.09;;;1.92;100.00
15308;BME280;7755;52.208;6.964;2023-03-15T01:22:44;100710.88;;;1.98;100.00
15308;BME280;7755;52.208;6.964;2023-03-15T01:26:48;100717.53;;;2.02;100.00
15308;BME280;7755;52.208;6.964;2023-03-15T01:30:53;100715.78;;;2.09;100.00
15308;BME280;7755;52.208;6.964;2023-03-15T01:34:56;100722.88;;;2.16;100.00
15308;BME280;7755;52.208;6.964;2023-03-15T01:38:58;100717.63;;;2.23;100.00
15308;BME280;7755;52.208;6.964;2023-03-15T01:43:14;100730.47;;;2.28;100.00
15308;BME280;7755;52.208;6.964;2023-03-15T01:47:20;100713.56;;;2.27;100.00
15308;BME280;7755;52.208;6.964;2023-03-15T01:51:33;100727.78;;;2.28;100.00
15308;BME280;7755;52.208;6.964;2023-03-15T01:55:39;100731.69;;;2.25;100.00
15308;BME280;7755;52.208;6.964;2023-03-15T01:59:50;100738.09;;;2.24;100.00
15308;BME280;7755;52.208;6.964;2023-03-15T02:03:59;100750.91;;;2.29;100.00
15308;BME280;7755;52.208;6.964;2023-03-15T02:08:08;100751.31;;;2.26;100.00
15308;BME280;7755;52.208;6.964;2023-03-15T02:12:13;100757.03;;;2.23;100.00
15308;BME280;7755;52.208;6.964;2023-03-15T02:16:17;100763.59;;;2.20;100.00
15308;BME280;7755;52.208;6.964;2023-03-15T02:20:33;100768.97;;;2.20;100.00
15308;BME280;7755;52.208;6.964;2023-03-15T02:24:46;100775.69;;;2.16;100.00
15308;BME280;7755;52.208;6.964;2023-03-15T02:28:55;100786.06;;;2.19;100.00
15308;BME280;7755;52.208;6.964;2023-03-15T02:33:00;100780.53;;;2.21;100.00
15308;BME280;7755;52.208;6.964;2023-03-15T02:37:04;100782.38;;;2.20;100.00
15308;BME280;7755;52.208;6.964;2023-03-15T02:41:07;100796.91;;;2.26;100.00
15308;BME280;7755;52.208;6.964;2023-03-15T02:45:12;100796.06;;;2.25;100.00
15308;BME280;7755;52.208;6.964;2023-03-15T02:49:16;100806.22;;;2.30;100.00
15308;BME280;7755;52.208;6.964;2023-03-15T02:53:20;100814.56;;;2.35;100.00
15308;BME280;7755;52.208;6.964;2023-03-15T02:57:23;100820.56;;;2.37;100.00
15308;BME280;7755;52.208;6.964;2023-03-15T03:01:30;100835.19;;;2.34;100.00
15308;BME280;7755;52.208;6.964;2023-03-15T03:05:33;100844.72;;;2.37;100.00
15308;BME280;7755;52.208;6.964;2023-03-15T03:09:37;100859.25;;;2.42;100.00
15308;BME280;7755;52.208;6.964;2023-03-15T03:13:41;100843.97;;;2.43;100.00
15308;BME280;7755;52.208;6.964;2023-03-15T03:17:46;100855.75;;;2.42;100.00
15308;BME280;7755;52.208;6.964;2023-03-15T03:21:49;100863.25;;;2.46;100.00
15308;BME280;7755;52.208;6.964;2023-03-15T03:25:54;100855.75;;;2.42;100.00
15308;BME280;7755;52.208;6.964;2023-03-15T03:29:58;100872.66;;;2.42;100.00
15308;BME280;7755;52.208;6.964;2023-03-15T03:34:02;100879.88;;;2.42;100.00
15308;BME280;7755;52.208;6.964;2023-03-15T03:38:05;100890.44;;;2.43;100.00
15308;BME280;7755;52.208;6.964;2023-03-15T03:42:12;100903.75;;;2.37;100.00
15308;BME280;7755;52.208;6.964;2023-03-15T03:46:16;100905.25;;;2.39;100.00
15308;BME280;7755;52.208;6.964;2023-03-15T03:50:25;100905.88;;;2.41;100.00
15308;BME280;7755;52.208;6.964;2023-03-15T03:54:28;100912.56;;;2.45;100.00
15308;BME280;7755;52.208;6.964;2023-03-15T03:58:33;100927.66;;;2.46;100.00
15308;BME280;7755;52.208;6.964;2023-03-15T04:02:46;100918.84;;;2.38;100.00
15308;BME280;7755;52.208;6.964;2023-03-15T04:06:51;100928.56;;;2.39;100.00
15308;BME280;7755;52.208;6.964;2023-03-15T04:11:00;100942.91;;;2.46;100.00
15308;BME280;7755;52.208;6.964;2023-03-15T04:15:06;100958.53;;;2.42;100.00
15308;BME280;7755;52.208;6.964;2023-03-15T04:19:09;100959.25;;;2.36;100.00
15308;BME280;7755;52.208;6.964;2023-03-15T04:23:16;100976.75;;;2.32;100.00
15308;BME280;7755;52.208;6.964;2023-03-15T04:27:33;100974.38;;;2.37;100.00
15308;BME280;7755;52.208;6.964;2023-03-15T04:31:45;100967.03;;;2.31;100.00
15308;BME280;7755;52.208;6.964;2023-03-15T04:36:04;100963.97;;;2.34;100.00
15308;BME280;7755;52.208;6.964;2023-03-15T04:40:31;100977.03;;;2.37;100.00
15308;BME280;7755;52.208;6.964;2023-03-15T04:44:55;100973.34;;;2.38;100.00
15308;BME280;7755;52.208;6.964;2023-03-15T04:49:36;100979.88;;;2.36;100.00
15308;BME280;7755;52.208;6.964;2023-03-15T04:53:49;100978.22;;;2.35;100.00
15308;BME280;7755;52.208;6.964;2023-03-15T04:58:09;100985.25;;;2.36;100.00
15308;BME280;7755;52.208;6.964;2023-03-15T05:02:36;101001.75;;;2.47;100.00
15308;BME280;7755;52.208;6.964;2023-03-15T05:06:59;101007.66;;;2.43;100.00
15308;BME280;7755;52.208;6.964;2023-03-15T05:11:19;101009.88;;;2.39;100.00
15308;BME280;7755;52.208;6.964;2023-03-15T05:15:42;101020.69;;;2.31;100.00
15308;BME280;7755;52.208;6.964;2023-03-15T05:20:08;101025.03;;;2.32;100.00
15308;BME280;7755;52.208;6.964;2023-03-15T05:24:37;101035.75;;;2.32;100.00
15308;BME280;7755;52.208;6.964;2023-03-15T05:28:55;101034.09;;;2.31;100.00
15308;BME280;7755;52.208;6.964;2023-03-15T05:33:14;101052.03;;;2.31;100.00
15308;BME280;7755;52.208;6.964;2023-03-15T05:37:40;101060.09;;;2.31;100.00
15308;BME280;7755;52.208;6.964;2023-03-15T05:42:06;101057.41;;;2.31;100.00
15308;BME280;7755;52.208;6.964;2023-03-15T05:46:26;101059.91;;;2.32;100.00
15308;BME280;7755;52.208;6.964;2023-03-15T05:50:35;101070.16;;;2.29;100.00
15308;BME280;7755;52.208;6.964;2023-03-15T05:54:58;101080.03;;;2.28;100.00
15308;BME280;7755;52.208;6.964;2023-03-15T05:59:33;101085.78;;;2.25;100.00
15308;BME280;7755;52.208;6.964;2023-03-15T06:03:54;101100.22;;;2.24;100.00
15308;BME280;7755;52.208;6.964;2023-03-15T06:08:13;101102.56;;;2.19;100.00
15308;BME280;7755;52.208;6.964;2023-03-15T06:12:19;101115.16;;;2.18;100.00
15308;BME280;7755;52.208;6.964;2023-03-15T06:16:23;101122.50;;;2.16;100.00
15308;BME280;7755;52.208;6.964;2023-03-15T06:20:28;101121.78;;;2.31;100.00
15308;BME280;7755;52.208;6.964;2023-03-15T06:24:39;101131.50;;;2.32;100.00
15308;BME280;7755;52.208;6.964;2023-03-15T06:28:42;101145.75;;;2.32;100.00
15308;BME280;7755;52.208;6.964;2023-03-15T06:32:45;101148.06;;;2.35;100.00
15308;BME280;7755;52.208;6.964;2023-03-15T06:36:49;101162.19;;;2.37;100.00
15308;BME280;7755;52.208;6.964;2023-03-15T06:40:54;101163.03;;;2.30;100.00
15308;BME280;7755;52.208;6.964;2023-03-15T06:44:59;101154.50;;;2.26;100.00
15308;BME280;7755;52.208;6.964;2023-03-15T06:49:02;101180.63;;;2.32;100.00
15308;BME280;7755;52.208;6.964;2023-03-15T06:53:06;101171.22;;;2.36;100.00
15308;BME280;7755;52.208;6.964;2023-03-15T06:57:11;101182.06;;;2.43;100.00
15308;BME280;7755;52.208;6.964;2023-03-15T07:01:15;101182.56;;;2.46;100.00
15308;BME280;7755;52.208;6.964;2023-03-15T07:05:18;101203.22;;;2.46;100.00
15308;BME280;7755;52.208;6.964;2023-03-15T07:09:21;101203.22;;;2.46;100.00
15308;BME280;7755;52.208;6.964;2023-03-15T07:13:26;101211.78;;;2.41;100.00
15308;BME280;7755;52.208;6.964;2023-03-15T07:17:29;101217.97;;;2.42;100.00
15308;BME280;7755;52.208;6.964;2023-03-15T07:21:32;101210.75;;;2.42;100.00
15308;BME280;7755;52.208;6.964;2023-03-15T07:25:35;101214.41;;;2.50;100.00
15308;BME280;7755;52.208;6.964;2023-03-15T07:29:57;101214.41;;;2.58;100.00
15308;BME280;7755;52.208;6.964;2023-03-15T07:34:01;101226.94;;;2.65;100.00
15308;BME280;7755;52.208;6.964;2023-03-15T07:38:04;101240.00;;;2.68;100.00
15308;BME280;7755;52.208;6.964;2023-03-15T07:42:08;101235.66;;;2.67;100.00
15308;BME280;7755;52.208;6.964;2023-03-15T07:46:17;101229.91;;;2.70;100.00
15308;BME280;7755;52.208;6.964;2023-03-15T07:50:20;101236.09;;;2.79;100.00
15308;BME280;7755;52.208;6.964;2023-03-15T07:54:23;101253.34;;;2.85;100.00
15308;BME280;7755;52.208;6.964;2023-03-15T07:58:29;101252.94;;;2.96;100.00
15308;BME280;7755;52.208;6.964;2023-03-15T08:02:34;101264.16;;;2.99;100.00
15308;BME280;7755;52.208;6.964;2023-03-15T08:06:36;101272.03;;;3.01;100.00
15308;BME280;7755;52.208;6.964;2023-03-15T08:10:39;101289.31;;;3.07;100.00
15308;BME280;7755;52.208;6.964;2023-03-15T08:14:43;101297.50;;;3.13;100.00
15308;BME280;7755;52.208;6.964;2023-03-15T08:18:48;101308.13;;;3.29;100.00
15308;BME280;7755;52.208;6.964;2023-03-15T08:22:51;101312.09;;;3.42;100.00
15308;BME280;7755;52.208;6.964;2023-03-15T08:26:54;101327.13;;;3.51;100.00
15308;BME280;7755;52.208;6.964;2023-03-15T08:30:58;101327.09;;;3.59;100.00
15308;BME280;7755;52.208;6.964;2023-03-15T08:35:04;101326.22;;;3.59;100.00
15308;BME280;7755;52.208;6.964;2023-03-15T08:39:07;101334.06;;;3.68;100.00
15308;BME280;7755;52.208;6.964;2023-03-15T08:43:10;101335.47;;;3.79;100.00
15308;BME280;7755;52.208;6.964;2023-03-15T08:47:13;101343.78;;;3.92;100.00
15308;BME280;7755;52.208;6.964;2023-03-15T08:51:18;101342.03;;;3.99;100.00
15308;BME280;7755;52.208;6.964;2023-03-15T08:55:22;101347.72;;;4.04;100.00
15308;BME280;7755;52.208;6.964;2023-03-15T08:59:25;101354.34;;;4.17;100.00
15308;BME280;7755;52.208;6.964;2023-03-15T09:03:33;101357.97;;;4.24;100.00
15308;BME280;7755;52.208;6.964;2023-03-15T09:07:37;101368.84;;;4.30;100.00
15308;BME280;7755;52.208;6.964;2023-03-15T09:11:40;101366.88;;;4.39;100.00
15308;BME280;7755;52.208;6.964;2023-03-15T09:15:43;101371.84;;;4.50;100.00
15308;BME280;7755;52.208;6.964;2023-03-15T09:19:47;101361.25;;;4.63;100.00
15308;BME280;7755;52.208;6.964;2023-03-15T09:23:51;101362.09;;;4.79;100.00
15308;BME280;7755;52.208;6.964;2023-03-15T09:27:54;101367.09;;;4.97;100.00
15308;BME280;7755;52.208;6.964;2023-03-15T09:31:57;101370.06;;;5.16;100.00
15308;BME280;7755;52.208;6.964;2023-03-15T09:36:02;101368.94;;;5.47;99.48
15308;BME280;7755;52.208;6.964;2023-03-15T09:40:13;101370.19;;;5.66;97.40
15308;BME280;7755;52.208;6.964;2023-03-15T09:44:31;101368.03;;;5.97;95.90
15308;BME280;7755;52.208;6.964;2023-03-15T09:48:41;101375.81;;;6.35;93.05
15308;BME280;7755;52.208;6.964;2023-03-15T09:52:47;101370.09;;;6.45;87.64
15308;BME280;7755;52.208;6.964;2023-03-15T09:56:55;101368.09;;;6.60;86.42
15308;BME280;7755;52.208;6.964;2023-03-15T10:01:01;101371.31;;;6.77;83.70
15308;BME280;7755;52.208;6.964;2023-03-15T10:05:07;101372.00;;;6.86;82.39
15308;BME280;7755;52.208;6.964;2023-03-15T10:09:17;101384.38;;;7.08;79.91
15308;BME280;7755;52.208;6.964;2023-03-15T10:13:32;101387.13;;;7.21;79.95
15308;BME280;7755;52.208;6.964;2023-03-15T10:17:49;101386.38;;;7.41;77.93
15308;BME280;7755;52.208;6.964;2023-03-15T10:21:57;101390.75;;;7.42;70.30
15308;BME280;7755;52.208;6.964;2023-03-15T10:26:05;101392.63;;;7.41;70.36
15308;BME280;7755;52.208;6.964;2023-03-15T10:30:16;101394.75;;;7.52;69.52
15308;BME280;7755;52.208;6.964;2023-03-15T10:34:21;101393.50;;;7.55;65.86
15308;BME280;7755;52.208;6.964;2023-03-15T10:38:24;101396.03;;;7.70;67.86
15308;BME280;7755;52.208;6.964;2023-03-15T10:42:29;101403.56;;;7.81;67.90
15308;BME280;7755;52.208;6.964;2023-03-15T10:46:33;101391.09;;;7.86;63.21
15308;BME280;7755;52.208;6.964;2023-03-15T10:50:38;101394.84;;;8.18;64.14
15308;BME280;7755;52.208;6.964;2023-03-15T10:54:41;101383.19;;;8.58;61.91
15308;BME280;7755;52.208;6.964;2023-03-15T10:58:46;101393.59;;;8.81;60.54
15308;BME280;7755;52.208;6.964;2023-03-15T11:03:16;101392.66;;;9.13;61.07
15308;BME280;7755;52.208;6.964;2023-03-15T11:07:20;101399.66;;;9.34;59.69
15308;BME280;7755;52.208;6.964;2023-03-15T11:11:23;101414.06;;;9.35;56.13
15308;BME280;7755;52.208;6.964;2023-03-15T11:15:27;101421.84;;;9.24;57.60
15308;BME280;7755;52.208;6.964;2023-03-15T11:19:35;101410.91;;;8.73;55.04
15308;BME280;7755;52.208;6.964;2023-03-15T11:23:43;101417.09;;;9.00;55.94
15308;BME280;7755;52.208;6.964;2023-03-15T11:27:46;101427.09;;;9.13;55.60
15308;BME280;7755;52.208;6.964;2023-03-15T11:32:14;101438.22;;;9.56;55.91
15308;BME280;7755;52.208;6.964;2023-03-15T11:36:20;101433.91;;;9.80;53.01
15308;BME280;7755;52.208;6.964;2023-03-15T11:40:37;101439.31;;;10.18;54.75
15308;BME280;7755;52.208;6.964;2023-03-15T11:44:44;101440.66;;;10.65;53.15
15308;BME280;7755;52.208;6.964;2023-03-15T11:48:50;101447.31;;;10.88;51.52
15308;BME280;7755;52.208;6.964;2023-03-15T11:52:56;101447.13;;;10.64;51.67
15308;BME280;7755;52.208;6.964;2023-03-15T11:57:05;101446.03;;;10.72;52.89
15308;BME280;7755;52.208;6.964;2023-03-15T12:01:10;101437.22;;;10.95;50.09
15308;BME280;7755;52.208;6.964;2023-03-15T12:05:40;101439.91;;;10.77;49.31
15308;BME280;7755;52.208;6.964;2023-03-15T12:09:50;101443.41;;;10.34;48.56
15308;BME280;7755;52.208;6.964;2023-03-15T12:14:03;101440.72;;;9.96;49.05
15308;BME280;7755;52.208;6.964;2023-03-15T12:18:13;101433.69;;;10.13;49.50
15308;BME280;7755;52.208;6.964;2023-03-15T12:22:27;101432.13;;;10.55;49.73
15308;BME280;7755;52.208;6.964;2023-03-15T12:26:43;101437.03;;;10.72;47.63
15308;BME280;7755;52.208;6.964;2023-03-15T12:30:53;101444.75;;;10.18;47.58
15308;BME280;7755;52.208;6.964;2023-03-15T12:35:15;101443.94;;;9.79;49.29
15308;BME280;7755;52.208;6.964;2023-03-15T12:39:35;101446.38;;;9.56;49.96
15308;BME280;7755;52.208;6.964;2023-03-15T12:43:42;101440.31;;;9.47;48.63
15308;BME280;7755;52.208;6.964;2023-03-15T12:48:25;101443.88;;;9.93;48.52
15308;BME280;7755;52.208;6.964;2023-03-15T12:52:39;101443.34;;;10.09;47.28
15308;BME280;7755;52.208;6.964;2023-03-15T12:56:46;101445.00;;;10.42;46.78
15308;BME280;7755;52.208;6.964;2023-03-15T13:00:53;101449.13;;;10.51;46.56
15308;BME280;7755;52.208;6.964;2023-03-15T13:05:27;101434.41;;;10.33;46.73
15308;BME280;7755;52.208;6.964;2023-03-15T13:10:02;101444.75;;;10.25;45.67
15308;BME280;7755;52.208;6.964;2023-03-15T13:14:24;101442.16;;;10.36;46.78
15308;BME280;7755;52.208;6.964;2023-03-15T13:18:35;101446.38;;;10.76;45.56
15308;BME280;7755;52.208;6.964;2023-03-15T13:22:48;101442.47;;;10.90;44.46
15308;BME280;7755;52.208;6.964;2023-03-15T13:26:58;101449.75;;;10.96;43.18
15308;BME280;7755;52.208;6.964;2023-03-15T13:31:12;101446.91;;;11.09;44.06
15308;BME280;7755;52.208;6.964;2023-03-15T13:35:20;101462.09;;;10.99;44.59
15308;BME280;7755;52.208;6.964;2023-03-15T13:39:26;101455.97;;;10.60;43.45
15308;BME280;7755;52.208;6.964;2023-03-15T13:43:32;101451.75;;;10.39;43.65
15308;BME280;7755;52.208;6.964;2023-03-15T13:47:36;101452.50;;;10.46;42.97
15308;BME280;7755;52.208;6.964;2023-03-15T13:51:40;101454.47;;;10.64;43.05
15308;BME280;7755;52.208;6.964;2023-03-15T13:55:48;101463.22;;;10.66;43.37
15308;BME280;7755;52.208;6.964;2023-03-15T13:59:56;101456.97;;;10.65;42.09
15308;BME280;7755;52.208;6.964;2023-03-15T14:04:05;101460.78;;;10.33;43.64
15308;BME280;7755;52.208;6.964;2023-03-15T14:08:19;101457.81;;;10.03;45.00
15308;BME280;7755;52.208;6.964;2023-03-15T14:12:29;101467.09;;;9.82;44.54
15308;BME280;7755;52.208;6.964;2023-03-15T14:16:38;101457.34;;;9.68;44.13
15308;BME280;7755;52.208;6.964;2023-03-15T14:21:05;101460.03;;;9.74;45.16
15308;BME280;7755;52.208;6.964;2023-03-15T14:25:20;101459.81;;;9.82;43.69
15308;BME280;7755;52.208;6.964;2023-03-15T14:29:27;101467.66;;;9.97;43.01
15308;BME280;7755;52.208;6.964;2023-03-15T14:33:32;101469.44;;;10.17;43.28
15308;BME280;7755;52.208;6.964;2023-03-15T14:37:37;101474.19;;;10.28;42.78
15308;BME280;7755;52.208;6.964;2023-03-15T14:41:41;101461.88;;;10.19;42.14
15308;BME280;7755;52.208;6.964;2023-03-15T14:45:46;101466.47;;;10.25;42.02
15308;BME280;7755;52.208;6.964;2023-03-15T14:49:49;101471.47;;;10.28;41.85
15308;BME280;7755;52.208;6.964;2023-03-15T14:53:53;101477.31;;;10.31;42.00
15308;BME280;7755;52.208;6.964;2023-03-15T14:57:59;101474.81;;;10.30;39.45
15308;BME280;7755;52.208;6.964;2023-03-15T15:02:04;101468.56;;;10.23;39.38
15308;BME280;7755;52.208;6.964;2023-03-15T15:06:10;101481.72;;;10.26;40.36
15308;BME280;7755;52.208;6.964;2023-03-15T15:10:15;101481.28;;;10.29;39.55
15308;BME280;7755;52.208;6.964;2023-03-15T15:14:20;101486.34;;;10.19;39.37
15308;BME280;7755;52.208;6.964;2023-03-15T15:18:25;101479.91;;;10.13;39.05
15308;BME280;7755;52.208;6.964;2023-03-15T15:22:28;101474.50;;;10.06;38.17
15308;BME280;7755;52.208;6.964;2023-03-15T15:26:32;101473.94;;;9.98;40.35
15308;BME280;7755;52.208;6.964;2023-03-15T15:30:38;101481.06;;;9.92;39.93
15308;BME280;7755;52.208;6.964;2023-03-15T15:34:41;101469.63;;;9.83;39.98
15308;BME280;7755;52.208;6.964;2023-03-15T15:38:44;101480.25;;;9.85;40.82
15308;BME280;7755;52.208;6.964;2023-03-15T15:42:47;101476.13;;;9.76;41.23
15308;BME280;7755;52.208;6.964;2023-03-15T15:46:52;101475.50;;;9.74;41.22
15308;BME280;7755;52.208;6.964;2023-03-15T15:50:55;101484.13;;;9.64;40.79
15308;BME280;7755;52.208;6.964;2023-03-15T15:54:58;101467.66;;;9.52;41.27
15308;BME280;7755;52.208;6.964;2023-03-15T15:59:11;101461.00;;;9.48;41.24
15308;BME280;7755;52.208;6.964;2023-03-15T16:03:23;101465.63;;;9.35;41.52
15308;BME280;7755;52.208;6.964;2023-03-15T16:07:32;101469.44;;;9.20;42.15
15308;BME280;7755;52.208;6.964;2023-03-15T16:11:35;101472.16;;;9.14;41.82
15308;BME280;7755;52.208;6.964;2023-03-15T16:15:38;101470.94;;;8.96;42.64
15308;BME280;7755;52.208;6.964;2023-03-15T16:19:43;101474.91;;;8.87;42.33
15308;BME280;7755;52.208;6.964;2023-03-15T16:23:53;101477.44;;;8.75;41.84
15308;BME280;7755;52.208;6.964;2023-03-15T16:27:59;101482.03;;;8.62;42.34
15308;BME280;7755;52.208;6.964;2023-03-15T16:32:03;101487.03;;;8.52;42.27
15308;BME280;7755;52.208;6.964;2023-03-15T16:36:24;101494.91;;;8.40;42.75
15308;BME280;7755;52.208;6.964;2023-03-15T16:40:31;101486.38;;;8.36;43.49
15308;BME280;7755;52.208;6.964;2023-03-15T16:44:34;101494.91;;;8.27;43.06
15308;BME280;7755;52.208;6.964;2023-03-15T16:48:37;101495.50;;;8.15;44.54
15308;BME280;7755;52.208;6.964;2023-03-15T16:52:42;101494.03;;;8.13;44.81
15308;BME280;7755;52.208;6.964;2023-03-15T16:56:54;101496.31;;;8.09;45.04
15308;BME280;7755;52.208;6.964;2023-03-15T17:01:05;101497.13;;;8.03;44.78
15308;BME280;7755;52.208;6.964;2023-03-15T17:05:09;101501.28;;;7.92;45.90
15308;BME280;7755;52.208;6.964;2023-03-15T17:09:17;101501.25;;;7.86;45.93
15308;BME280;7755;52.208;6.964;2023-03-15T17:13:24;101501.66;;;7.83;46.63
15308;BME280;7755;52.208;6.964;2023-03-15T17:17:28;101508.09;;;7.82;47.38
15308;BME280;7755;52.208;6.964;2023-03-15T17:21:35;101517.47;;;7.79;47.84
15308;BME280;7755;52.208;6.964;2023-03-15T17:25:46;101512.88;;;7.73;48.63
15308;BME280;7755;52.208;6.964;2023-03-15T17:29:50;101519.91;;;7.68;49.21
15308;BME280;7755;52.208;6.964;2023-03-15T17:33:54;101516.34;;;7.60;50.12
15308;BME280;7755;52.208;6.964;2023-03-15T17:37:57;101514.00;;;7.51;50.71
15308;BME280;7755;52.208;6.964;2023-03-15T17:42:02;101516.44;;;7.39;50.72
15308;BME280;7755;52.208;6.964;2023-03-15T17:46:07;101514.09;;;7.29;50.99
15308;BME280;7755;52.208;6.964;2023-03-15T17:50:11;101523.16;;;7.15;52.22
15308;BME280;7755;52.208;6.964;2023-03-15T17:54:20;101525.13;;;7.00;52.87
15308;BME280;7755;52.208;6.964;2023-03-15T17:58:30;101531.41;;;6.79;53.84
15308;BME280;7755;52.208;6.964;2023-03-15T18:02:34;101518.81;;;6.65;55.32
15308;BME280;7755;52.208;6.964;2023-03-15T18:06:41;101523.84;;;6.46;55.73
15308;BME280;7755;52.208;6.964;2023-03-15T18:10:46;101521.84;;;6.34;56.51
15308;BME280;7755;52.208;6.964;2023-03-15T18:14:52;101526.91;;;6.22;57.66
15308;BME280;7755;52.208;6.964;2023-03-15T18:18:55;101545.50;;;6.10;58.56
15308;BME280;7755;52.208;6.964;2023-03-15T18:22:59;101544.50;;;5.96;59.02
15308;BME280;7755;52.208;6.964;2023-03-15T18:27:02;101543.66;;;5.81;59.72
15308;BME280;7755;52.208;6.964;2023-03-15T18:31:11;101545.13;;;5.69;60.68
15308;BME280;7755;52.208;6.964;2023-03-15T18:35:25;101546.00;;;5.55;61.43
15308;BME280;7755;52.208;6.964;2023-03-15T18:39:29;101551.78;;;5.37;62.94
15308;BME280;7755;52.208;6.964;2023-03-15T18:43:33;101559.56;;;5.17;65.40
15308;BME280;7755;52.208;6.964;2023-03-15T18:47:37;101563.09;;;5.03;67.18
15308;BME280;7755;52.208;6.964;2023-03-15T18:51:43;101569.72;;;4.92;68.41
15308;BME280;7755;52.208;6.964;2023-03-15T18:55:47;101565.63;;;4.81;69.23
15308;BME280;7755;52.208;6.964;2023-03-15T18:59:53;101572.59;;;4.76;69.38
15308;BME280;7755;52.208;6.964;2023-03-15T19:04:00;101579.53;;;4.70;69.49
15308;BME280;7755;52.208;6.964;2023-03-15T19:08:03;101577.53;;;4.64;70.73
15308;BME280;7755;52.208;6.964;2023-03-15T19:12:07;101580.63;;;4.61;70.80
15308;BME280;7755;52.208;6.964;2023-03-15T19:16:10;101580.50;;;4.54;71.20
15308;BME280;7755;52.208;6.964;2023-03-15T19:24:24;101577.19;;;4.44;72.80
15308;BME280;7755;52.208;6.964;2023-03-15T19:28:27;101578.09;;;4.36;73.11
15308;BME280;7755;52.208;6.964;2023-03-15T19:32:31;101570.25;;;4.27;73.74
15308;BME280;7755;52.208;6.964;2023-03-15T19:36:35;101570.13;;;4.20;73.93
15308;BME280;7755;52.208;6.964;2023-03-15T19:40:40;101577.19;;;4.13;74.30
15308;BME280;7755;52.208;6.964;2023-03-15T19:44:43;101585.16;;;4.06;75.36
15308;BME280;7755;52.208;6.964;2023-03-15T19:48:48;101577.94;;;3.99;75.32
15308;BME280;7755;52.208;6.964;2023-03-15T19:52:51;101585.56;;;3.95;75.90
15308;BME280;7755;52.208;6.964;2023-03-15T19:56:56;101585.41;;;3.89;76.26
15308;BME280;7755;52.208;6.964;2023-03-15T20:01:12;101586.09;;;3.82;76.78
15308;BME280;7755;52.208;6.964;2023-03-15T20:05:19;101587.47;;;3.78;77.81
15308;BME280;7755;52.208;6.964;2023-03-15T20:09:22;101593.66;;;3.79;81.92
15308;BME280;7755;52.208;6.964;2023-03-15T20:13:28;101589.31;;;3.78;80.50
15308;BME280;7755;52.208;6.964;2023-03-15T20:17:31;101591.72;;;3.73;80.42
15308;BME280;7755;52.208;6.964;2023-03-15T20:21:35;101584.16;;;3.68;80.44
15308;BME280;7755;52.208;6.964;2023-03-15T20:25:39;101572.06;;;3.64;81.40
15308;BME280;7755;52.208;6.964;2023-03-15T20:29:45;101577.13;;;3.59;81.09
15308;BME280;7755;52.208;6.964;2023-03-15T20:33:49;101575.44;;;3.58;81.59
15308;BME280;7755;52.208;6.964;2023-03-15T20:37:52;101579.31;;;3.55;81.69
15308;BME280;7755;52.208;6.964;2023-03-15T20:41:57;101577.00;;;3.52;82.09
15308;BME280;7755;52.208;6.964;2023-03-15T20:46:02;101577.66;;;3.46;83.64
15308;BME280;7755;52.208;6.964;2023-03-15T20:50:06;101579.53;;;3.38;84.40
15308;BME280;7755;52.208;6.964;2023-03-15T20:54:10;101580.38;;;3.30;85.74
15308;BME280;7755;52.208;6.964;2023-03-15T20:58:13;101579.91;;;3.26;86.91
15308;BME280;7755;52.208;6.964;2023-03-15T21:02:19;101581.91;;;3.24;87.24
15308;BME280;7755;52.208;6.964;2023-03-15T21:06:29;101585.59;;;3.23;87.69
15308;BME280;7755;52.208;6.964;2023-03-15T21:10:32;101579.56;;;3.21;87.70
15308;BME280;7755;52.208;6.964;2023-03-15T21:14:37;101582.56;;;3.18;88.22
15308;BME280;7755;52.208;6.964;2023-03-15T21:18:42;101574.69;;;3.17;88.03
15308;BME280;7755;52.208;6.964;2023-03-15T21:22:52;101576.72;;;3.15;88.04
15308;BME280;7755;52.208;6.964;2023-03-15T21:26:57;101573.38;;;3.13;88.66
15308;BME280;7755;52.208;6.964;2023-03-15T21:31:08;101567.16;;;3.12;88.31
15308;BME280;7755;52.208;6.964;2023-03-15T21:35:17;101568.34;;;3.10;88.08
15308;BME280;7755;52.208;6.964;2023-03-15T21:39:23;101564.97;;;3.08;87.64
15308;BME280;7755;52.208;6.964;2023-03-15T21:43:28;101564.16;;;3.07;86.99
15308;BME280;7755;52.208;6.964;2023-03-15T21:47:32;101568.16;;;3.03;86.76
15308;BME280;7755;52.208;6.964;2023-03-15T21:51:37;101556.25;;;2.97;86.87
15308;BME280;7755;52.208;6.964;2023-03-15T21:55:40;101555.09;;;2.92;86.33
15308;BME280;7755;52.208;6.964;2023-03-15T21:59:47;101559.47;;;2.93;86.48
15308;BME280;7755;52.208;6.964;2023-03-15T22:03:50;101556.97;;;2.91;85.50